Kilkenny, Minnesota
Current Conditions -  °F | °C
As of 8:14 AM on Wednesday 28 Jan 2015 (Local Time) from KFBL Reporting Station
Haze Haze  
Wind Chill: -8°   Ceiling: 500
Heat Index: -2°   Visibility: 1.7mi
Dew Point: -3°   Wind: 15mph
Humidity: 93%   Direction: 140°SE
Pressure: 29.99"   Gusts: 21mph
Location:  44.31°N, 93.57°W
Report Text: KFBL 281414Z AUTO 14013G18KT 1 3/4SM BR OVC005 M02/M03 A2999 RMK AO2
Loading
Personal Weather Stations






























Interactive Weather Map New forecast layout! Learn more

10-Day Weather Forecast

Advertisements
Track Severe Weather on mobile